Time;durP1;ratioP1;P1;durP2;ratioP2;P2;SDS_P1;SDS_P2;PMS_P1;PMS_P2;Temp;Humidity;BMP_temperature;BMP_pressure;BME280_temperature;BME280_humidity;BME280_pressure;Samples;Min_cycle;Max_cycle;Signal;HPM_P1;HPM_P2
2022/01/23 00:00:35;;;;;;;35.60;18.38;;;;;;;;;;5082088;28;20238;-75
2022/01/23 00:03:06;;;;;;;34.95;16.98;;;;;;;;;;5082055;28;20082;-74
2022/01/23 00:05:37;;;;;;;34.65;17.02;;;;;;;;;;5081141;28;20123;-74
2022/01/23 00:08:03;;;;;;;32.88;17.23;;;;;;;;;;5081777;28;20029;-74
2022/01/23 00:10:29;;;;;;;32.15;17.20;;;;;;;;;;5082389;28;20025;-74
2022/01/23 00:13:06;;;;;;;34.92;18.20;;;;;;;;;;5091008;28;20381;-76
2022/01/23 00:18:16;;;;;;;33.25;16.73;;;;;;;;;;5077961;28;20134;-75
2022/01/23 00:20:42;;;;;;;35.67;17.95;;;;;;;;;;5081916;28;20020;-78
2022/01/23 00:23:15;;;;;;;38.33;19.10;;;;;;;;;;5076088;28;20024;-74
2022/01/23 00:31:08;;;;;;;38.05;17.75;;;;;;;;;;5082462;28;20378;-75
2022/01/23 00:33:34;;;;;;;37.70;18.77;;;;;;;;;;5081305;28;20036;-76
2022/01/23 00:35:59;;;;;;;36.42;17.88;;;;;;;;;;5081336;28;20307;-76
2022/01/23 00:38:24;;;;;;;37.88;18.50;;;;;;;;;;5088047;28;20277;-74
2022/01/23 00:40:50;;;;;;;37.20;17.98;;;;;;;;;;5081639;28;20032;-76
2022/01/23 00:43:30;;;;;;;38.38;18.65;;;;;;;;;;5081586;28;20051;-76
2022/01/23 00:48:52;;;;;;;33.72;18.20;;;;;;;;;;5077395;28;20347;-76
2022/01/23 00:51:17;;;;;;;37.47;18.85;;;;;;;;;;5069329;28;20279;-76
2022/01/23 00:53:42;;;;;;;37.20;18.13;;;;;;;;;;5065435;28;20025;-76
2022/01/23 00:56:09;;;;;;;36.97;18.55;;;;;;;;;;5071224;28;20074;-77
2022/01/23 00:58:34;;;;;;;36.40;18.25;;;;;;;;;;5074777;28;20039;-76
2022/01/23 01:00:59;;;;;;;38.67;18.80;;;;;;;;;;5081001;28;20043;-76
2022/01/23 01:03:25;;;;;;;44.10;17.38;;;;;;;;;;5081297;28;20081;-76
2022/01/23 01:05:50;;;;;;;37.22;18.25;;;;;;;;;;5073531;28;20036;-77
2022/01/23 01:08:16;;;;;;;33.20;17.48;;;;;;;;;;5070109;28;20025;-76
2022/01/23 01:14:06;;;;;;;39.95;18.13;;;;;;;;;;5058720;28;20040;-77
2022/01/23 01:35:18;;;;;;;38.70;18.80;;;;;;;;;;5066602;28;20040;-77
2022/01/23 01:37:43;;;;;;;41.50;19.33;;;;;;;;;;5065398;28;20198;-75
2022/01/23 01:40:09;;;;;;;42.08;19.05;;;;;;;;;;5075040;28;20036;-77
2022/01/23 01:42:35;;;;;;;41.15;19.55;;;;;;;;;;5071046;28;20025;-75
2022/01/23 01:45:00;;;;;;;36.92;18.38;;;;;;;;;;5050805;28;20040;-78
2022/01/23 01:47:26;;;;;;;36.20;17.50;;;;;;;;;;5075041;28;20254;-78
2022/01/23 01:49:51;;;;;;;37.88;18.77;;;;;;;;;;5083099;28;20090;-74
2022/01/23 01:52:16;;;;;;;37.65;17.90;;;;;;;;;;5072136;28;20029;-75
2022/01/23 01:54:42;;;;;;;35.55;17.65;;;;;;;;;;5067963;28;20025;-75
2022/01/23 01:57:10;;;;;;;36.03;16.95;;;;;;;;;;5066593;28;20021;-75
2022/01/23 02:00:10;;;;;;;34.78;16.92;;;;;;;;;;5065630;28;20300;-75
2022/01/23 02:10:50;;;;;;;35.88;16.60;;;;;;;;;;5075378;28;20027;-75
2022/01/23 02:13:19;;;;;;;36.05;16.73;;;;;;;;;;5078355;28;20024;-74
2022/01/23 02:23:41;;;;;;;33.25;15.50;;;;;;;;;;5074997;28;20036;-75
2022/01/23 02:50:56;;;;;;;34.78;16.90;;;;;;;;;;5078915;28;20452;-75
2022/01/23 02:56:01;;;;;;;32.47;16.48;;;;;;;;;;5068643;28;20032;-75
2022/01/23 02:58:37;;;;;;;33.40;15.77;;;;;;;;;;5082231;28;20095;-74
2022/01/23 03:03:29;;;;;;;32.55;15.35;;;;;;;;;;5082845;28;20058;-75
2022/01/23 03:30:16;;;;;;;31.10;14.82;;;;;;;;;;5078577;28;20035;-75
2022/01/23 03:32:47;;;;;;;28.38;14.00;;;;;;;;;;5082098;28;20383;-75
2022/01/23 03:35:14;;;;;;;32.42;15.00;;;;;;;;;;5078118;28;20067;-75
2022/01/23 03:37:40;;;;;;;30.58;13.43;;;;;;;;;;5081230;28;20070;-75
2022/01/23 03:40:06;;;;;;;30.42;14.75;;;;;;;;;;5076489;28;20053;-76
2022/01/23 03:42:35;;;;;;;32.40;13.50;;;;;;;;;;5058408;28;20403;-76
2022/01/23 03:47:39;;;;;;;32.47;14.02;;;;;;;;;;5081345;28;20016;-76
2022/01/23 03:50:11;;;;;;;28.92;13.23;;;;;;;;;;5081189;28;20364;-75
2022/01/23 03:52:37;;;;;;;30.13;13.75;;;;;;;;;;5075380;28;20092;-75
2022/01/23 03:55:06;;;;;;;26.58;12.38;;;;;;;;;;5076593;28;20020;-76
2022/01/23 03:57:31;;;;;;;31.95;13.18;;;;;;;;;;5077820;28;20049;-76
2022/01/23 03:59:56;;;;;;;27.73;12.27;;;;;;;;;;5077463;28;20044;-75
2022/01/23 04:02:22;;;;;;;27.23;12.00;;;;;;;;;;5079248;28;20104;-75
2022/01/23 04:04:47;;;;;;;28.52;11.77;;;;;;;;;;5075850;28;20028;-76
2022/01/23 04:07:24;;;;;;;25.48;12.35;;;;;;;;;;5081136;28;20048;-76
2022/01/23 04:09:51;;;;;;;26.83;13.10;;;;;;;;;;5074150;28;20028;-76
2022/01/23 04:12:46;;;;;;;29.45;13.63;;;;;;;;;;5088600;28;20056;-76
2022/01/23 04:15:17;;;;;;;29.98;13.75;;;;;;;;;;5079549;28;20036;-75
2022/01/23 04:34:17;;;;;;;24.08;11.32;;;;;;;;;;5080931;28;20355;-75
2022/01/23 05:01:30;;;;;;;27.95;13.20;;;;;;;;;;5078809;28;20106;-76
2022/01/23 05:06:45;;;;;;;29.25;13.05;;;;;;;;;;5074766;28;20031;-76
2022/01/23 05:09:12;;;;;;;28.48;12.90;;;;;;;;;;5080318;28;20040;-76
2022/01/23 05:11:43;;;;;;;27.00;11.20;;;;;;;;;;5079432;28;20119;-76
2022/01/23 05:14:09;;;;;;;27.65;12.68;;;;;;;;;;5085888;28;20066;-76
2022/01/23 05:16:34;;;;;;;29.17;12.95;;;;;;;;;;5078200;28;20415;-76
2022/01/23 05:19:01;;;;;;;26.25;12.93;;;;;;;;;;5081327;28;20028;-76
2022/01/23 05:24:05;;;;;;;28.15;12.73;;;;;;;;;;5078467;28;20048;-76
2022/01/23 05:26:31;;;;;;;26.92;11.82;;;;;;;;;;5079203;28;20028;-76
2022/01/23 05:28:56;;;;;;;31.65;13.77;;;;;;;;;;5078395;28;20031;-76
2022/01/23 05:31:25;;;;;;;28.35;13.15;;;;;;;;;;5080047;28;20028;-76
2022/01/23 05:33:50;;;;;;;28.15;12.48;;;;;;;;;;5078110;28;20028;-76
2022/01/23 05:36:15;;;;;;;29.48;13.27;;;;;;;;;;5070287;28;20041;-76
2022/01/23 05:38:41;;;;;;;27.02;12.40;;;;;;;;;;5061780;28;20080;-76
2022/01/23 05:41:07;;;;;;;32.58;13.40;;;;;;;;;;5065033;28;20021;-76
2022/01/23 05:43:32;;;;;;;27.52;12.55;;;;;;;;;;5074476;28;20024;-76
2022/01/23 05:45:58;;;;;;;26.40;12.55;;;;;;;;;;5079731;28;20036;-75
2022/01/23 05:48:23;;;;;;;24.63;11.77;;;;;;;;;;5070622;28;20025;-75
2022/01/23 05:50:49;;;;;;;28.13;12.57;;;;;;;;;;5078097;28;20096;-76
2022/01/23 05:53:14;;;;;;;28.35;12.50;;;;;;;;;;5073864;28;20032;-75
2022/01/23 05:55:40;;;;;;;30.45;12.95;;;;;;;;;;5084047;28;20051;-76
2022/01/23 05:58:05;;;;;;;27.17;12.25;;;;;;;;;;5074760;28;20036;-76
2022/01/23 06:00:31;;;;;;;30.38;12.98;;;;;;;;;;5079937;28;20021;-76
2022/01/23 06:02:56;;;;;;;29.58;13.02;;;;;;;;;;5070487;28;20051;-76
2022/01/23 06:05:24;;;;;;;28.27;12.20;;;;;;;;;;5079682;28;20029;-76
2022/01/23 06:07:50;;;;;;;31.05;12.38;;;;;;;;;;5081791;28;20028;-75
2022/01/23 06:10:23;;;;;;;26.35;11.30;;;;;;;;;;5083846;28;20201;-76
2022/01/23 06:12:49;;;;;;;27.33;12.32;;;;;;;;;;5083729;28;20032;-75
2022/01/23 06:15:15;;;;;;;30.20;13.00;;;;;;;;;;5080479;28;20048;-75
2022/01/23 06:17:41;;;;;;;29.75;12.55;;;;;;;;;;5075866;28;20202;-76
2022/01/23 06:20:09;;;;;;;28.33;11.77;;;;;;;;;;5079763;28;20059;-75
2022/01/23 06:22:34;;;;;;;27.42;11.60;;;;;;;;;;5083271;28;20032;-76
2022/01/23 06:24:59;;;;;;;27.98;12.07;;;;;;;;;;5077594;28;20060;-76
2022/01/23 06:27:27;;;;;;;26.50;12.02;;;;;;;;;;5078258;28;20316;-76
2022/01/23 06:29:53;;;;;;;25.23;11.32;;;;;;;;;;5080688;28;20021;-76
2022/01/23 06:32:18;;;;;;;26.02;11.18;;;;;;;;;;5082529;28;20045;-76
2022/01/23 06:34:43;;;;;;;23.45;9.68;;;;;;;;;;5085611;28;20351;-76
2022/01/23 06:37:09;;;;;;;24.60;10.50;;;;;;;;;;5082600;28;20078;-76
2022/01/23 06:39:34;;;;;;;25.17;10.60;;;;;;;;;;5074424;28;20094;-76
2022/01/23 06:42:00;;;;;;;25.85;10.27;;;;;;;;;;5083793;28;20020;-76
2022/01/23 06:44:26;;;;;;;25.88;11.32;;;;;;;;;;5083320;28;20029;-76
2022/01/23 06:46:51;;;;;;;24.45;10.27;;;;;;;;;;5062874;28;20020;-76
2022/01/23 06:49:17;;;;;;;24.77;10.20;;;;;;;;;;5073157;28;20029;-76
2022/01/23 06:51:43;;;;;;;22.92;10.43;;;;;;;;;;5077224;28;20212;-76
2022/01/23 06:54:09;;;;;;;19.95;9.30;;;;;;;;;;5077443;28;20050;-75
2022/01/23 06:56:35;;;;;;;19.52;9.20;;;;;;;;;;5081953;28;20036;-76
2022/01/23 06:59:00;;;;;;;20.38;9.07;;;;;;;;;;5083953;28;20043;-76
2022/01/23 07:01:26;;;;;;;21.15;9.32;;;;;;;;;;5080491;28;20045;-76
2022/01/23 07:03:51;;;;;;;20.50;9.30;;;;;;;;;;5081094;28;20087;-75
2022/01/23 07:06:16;;;;;;;18.05;7.82;;;;;;;;;;5083164;28;20020;-75
2022/01/23 07:08:45;;;;;;;19.33;8.05;;;;;;;;;;5072007;28;20040;-76
2022/01/23 07:11:10;;;;;;;15.15;6.95;;;;;;;;;;5076223;28;20025;-76
2022/01/23 07:13:36;;;;;;;16.50;7.65;;;;;;;;;;5080977;28;20197;-76
2022/01/23 07:16:06;;;;;;;16.00;7.03;;;;;;;;;;5075326;28;20025;-76
2022/01/23 07:18:31;;;;;;;14.63;7.35;;;;;;;;;;5077003;28;20027;-76
2022/01/23 07:20:57;;;;;;;14.85;6.80;;;;;;;;;;5082413;28;20024;-75
2022/01/23 07:23:23;;;;;;;12.93;6.68;;;;;;;;;;5061116;28;20036;-75
2022/01/23 07:25:52;;;;;;;14.98;7.18;;;;;;;;;;5078912;28;20087;-76
2022/01/23 07:28:21;;;;;;;15.27;6.85;;;;;;;;;;5073725;28;20032;-75
2022/01/23 07:30:58;;;;;;;15.50;7.30;;;;;;;;;;5073808;28;20036;-75
2022/01/23 07:33:23;;;;;;;12.73;6.78;;;;;;;;;;5067866;28;20036;-75
2022/01/23 07:35:48;;;;;;;14.23;6.53;;;;;;;;;;5071604;28;20070;-75
2022/01/23 07:38:17;;;;;;;16.95;7.03;;;;;;;;;;5071849;28;20035;-75
2022/01/23 07:40:48;;;;;;;13.70;6.63;;;;;;;;;;5070036;28;20016;-75
2022/01/23 07:43:14;;;;;;;16.77;7.45;;;;;;;;;;5069040;28;20041;-75
2022/01/23 07:45:40;;;;;;;13.88;7.45;;;;;;;;;;5067688;28;20118;-75
2022/01/23 07:48:06;;;;;;;14.95;7.20;;;;;;;;;;5066478;28;20324;-76
2022/01/23 07:50:31;;;;;;;14.65;6.90;;;;;;;;;;5050053;28;20036;-75
2022/01/23 07:52:57;;;;;;;14.02;6.55;;;;;;;;;;5068509;28;20220;-75
2022/01/23 07:55:22;;;;;;;14.00;6.32;;;;;;;;;;5077134;28;20262;-76
2022/01/23 07:57:47;;;;;;;13.65;6.40;;;;;;;;;;5069988;28;20086;-75
2022/01/23 08:00:14;;;;;;;15.60;6.88;;;;;;;;;;5066437;28;20020;-76
2022/01/23 08:02:40;;;;;;;12.65;6.47;;;;;;;;;;5068078;28;20346;-76
2022/01/23 08:05:09;;;;;;;14.35;6.95;;;;;;;;;;5071351;28;20416;-76
2022/01/23 08:07:36;;;;;;;15.32;6.72;;;;;;;;;;5068184;28;20328;-76
2022/01/23 08:10:05;;;;;;;12.93;6.00;;;;;;;;;;5068485;28;20043;-75
2022/01/23 08:12:31;;;;;;;14.10;6.68;;;;;;;;;;5067099;28;20031;-75
2022/01/23 08:14:58;;;;;;;13.52;6.28;;;;;;;;;;5073385;28;20016;-75
2022/01/23 08:17:24;;;;;;;12.50;6.00;;;;;;;;;;5063363;28;20031;-75
2022/01/23 08:19:55;;;;;;;11.52;5.45;;;;;;;;;;5067822;28;20013;-75
2022/01/23 08:22:22;;;;;;;13.43;6.32;;;;;;;;;;5066163;28;20063;-76
2022/01/23 08:24:49;;;;;;;14.15;6.22;;;;;;;;;;5068682;28;20251;-77
2022/01/23 08:27:15;;;;;;;12.73;5.80;;;;;;;;;;5067552;28;20080;-77
2022/01/23 08:29:41;;;;;;;13.88;6.18;;;;;;;;;;5067526;28;20070;-77
2022/01/23 08:32:07;;;;;;;13.13;5.55;;;;;;;;;;5066657;28;20035;-77
2022/01/23 08:34:32;;;;;;;11.75;5.05;;;;;;;;;;5067677;28;20036;-77
2022/01/23 08:36:58;;;;;;;11.75;4.93;;;;;;;;;;5066124;28;20032;-77
2022/01/23 08:39:25;;;;;;;12.02;5.20;;;;;;;;;;5070301;28;20028;-76
2022/01/23 08:41:51;;;;;;;10.18;4.88;;;;;;;;;;5062381;28;20399;-75
2022/01/23 08:44:20;;;;;;;11.85;5.45;;;;;;;;;;5078396;28;20039;-75
2022/01/23 08:46:46;;;;;;;10.02;4.65;;;;;;;;;;5079729;28;20028;-75
2022/01/23 08:49:11;;;;;;;11.55;5.35;;;;;;;;;;5075244;28;20025;-76
2022/01/23 08:51:37;;;;;;;10.02;4.90;;;;;;;;;;5075609;28;20082;-75
2022/01/23 08:54:03;;;;;;;10.98;5.22;;;;;;;;;;5071584;28;20063;-76
2022/01/23 08:56:30;;;;;;;13.55;5.40;;;;;;;;;;5075999;28;20032;-75
2022/01/23 08:58:56;;;;;;;11.40;4.90;;;;;;;;;;5075817;28;20083;-76
2022/01/23 09:01:23;;;;;;;10.73;4.93;;;;;;;;;;5048077;28;20040;-76
2022/01/23 09:03:48;;;;;;;11.13;5.45;;;;;;;;;;5079433;28;20359;-77
2022/01/23 09:06:14;;;;;;;12.43;5.90;;;;;;;;;;5083103;28;20040;-76
2022/01/23 09:08:40;;;;;;;11.32;5.28;;;;;;;;;;5071360;28;20531;-76
2022/01/23 09:11:23;;;;;;;13.23;6.05;;;;;;;;;;5074963;28;20346;-75
2022/01/23 09:16:14;;;;;;;12.35;6.35;;;;;;;;;;5076868;28;20024;-76
2022/01/23 09:18:40;;;;;;;15.80;6.25;;;;;;;;;;5078960;28;20028;-76
2022/01/23 09:21:05;;;;;;;14.75;6.15;;;;;;;;;;5073140;28;20315;-75
2022/01/23 09:23:31;;;;;;;13.27;6.35;;;;;;;;;;5075543;28;20051;-74
2022/01/23 09:25:59;;;;;;;15.20;6.57;;;;;;;;;;5077545;28;20377;-74
2022/01/23 09:28:31;;;;;;;14.00;6.15;;;;;;;;;;5076612;28;20036;-74
2022/01/23 09:30:57;;;;;;;11.98;5.32;;;;;;;;;;5056522;28;20024;-74
2022/01/23 09:33:22;;;;;;;12.98;5.85;;;;;;;;;;5068433;28;20050;-74
2022/01/23 09:35:48;;;;;;;14.15;6.57;;;;;;;;;;5075901;28;20280;-74
2022/01/23 09:38:13;;;;;;;15.30;6.30;;;;;;;;;;5050138;28;20055;-74
2022/01/23 09:40:41;;;;;;;12.95;5.40;;;;;;;;;;5058065;28;20028;-74
2022/01/23 09:43:11;;;;;;;15.30;6.35;;;;;;;;;;5072598;28;20130;-75
2022/01/23 09:45:38;;;;;;;14.20;5.38;;;;;;;;;;5071146;28;20088;-74
2022/01/23 09:48:04;;;;;;;13.45;5.75;;;;;;;;;;5071939;28;20103;-74
2022/01/23 09:50:31;;;;;;;13.23;5.82;;;;;;;;;;5073855;28;20077;-74
2022/01/23 09:52:57;;;;;;;13.25;6.00;;;;;;;;;;5078073;28;20035;-74
2022/01/23 09:55:25;;;;;;;11.85;5.55;;;;;;;;;;5077000;28;20328;-74
2022/01/23 09:57:52;;;;;;;11.13;5.30;;;;;;;;;;5075299;28;20052;-74
2022/01/23 10:00:20;;;;;;;10.48;4.55;;;;;;;;;;5078260;28;20033;-74
2022/01/23 10:02:46;;;;;;;12.15;5.28;;;;;;;;;;5077219;28;20048;-74
2022/01/23 10:05:12;;;;;;;10.75;4.80;;;;;;;;;;5060453;28;20052;-74
2022/01/23 10:07:40;;;;;;;13.88;5.13;;;;;;;;;;5049840;28;20213;-74
2022/01/23 10:10:13;;;;;;;10.90;5.20;;;;;;;;;;5068725;28;20036;-75
2022/01/23 10:12:43;;;;;;;11.55;4.82;;;;;;;;;;5059341;28;20025;-74
2022/01/23 10:15:10;;;;;;;13.30;5.07;;;;;;;;;;5082632;28;20047;-74
2022/01/23 10:17:36;;;;;;;12.15;5.00;;;;;;;;;;5072185;28;20029;-74
2022/01/23 10:20:07;;;;;;;12.45;5.35;;;;;;;;;;5075359;28;20026;-75
2022/01/23 10:22:34;;;;;;;11.05;4.78;;;;;;;;;;5073185;28;20033;-74
2022/01/23 10:25:10;;;;;;;12.25;5.45;;;;;;;;;;5074545;28;20031;-75
2022/01/23 10:28:02;;;;;;;12.98;5.70;;;;;;;;;;5056496;28;20055;-75
2022/01/23 10:30:40;;;;;;;11.50;5.13;;;;;;;;;;5074520;28;20028;-74
2022/01/23 10:33:16;;;;;;;14.80;6.05;;;;;;;;;;5066868;28;20040;-75
2022/01/23 10:35:56;;;;;;;11.88;5.22;;;;;;;;;;5074586;28;20041;-75
2022/01/23 10:38:24;;;;;;;12.98;6.00;;;;;;;;;;5072648;28;20050;-74
2022/01/23 10:41:02;;;;;;;10.30;4.55;;;;;;;;;;5069468;28;20028;-75
2022/01/23 10:48:57;;;;;;;10.52;5.00;;;;;;;;;;5072788;28;20024;-76
2022/01/23 10:51:30;;;;;;;11.63;5.18;;;;;;;;;;5068808;28;20028;-74
2022/01/23 10:54:11;;;;;;;12.50;5.70;;;;;;;;;;5066070;28;20216;-74
2022/01/23 10:57:06;;;;;;;13.85;5.55;;;;;;;;;;5068198;28;20036;-75
2022/01/23 10:59:50;;;;;;;14.10;5.93;;;;;;;;;;5070173;28;20037;-75
2022/01/23 11:02:21;;;;;;;16.92;5.80;;;;;;;;;;5068997;28;20312;-74
2022/01/23 11:04:58;;;;;;;15.20;6.25;;;;;;;;;;5069730;28;20139;-74
2022/01/23 11:07:25;;;;;;;15.00;5.22;;;;;;;;;;5068689;28;20378;-74
2022/01/23 11:10:01;;;;;;;14.75;6.35;;;;;;;;;;5067166;28;20062;-74
2022/01/23 11:18:09;;;;;;;14.77;5.68;;;;;;;;;;5066661;28;20055;-74
2022/01/23 11:20:48;;;;;;;11.45;4.80;;;;;;;;;;5068609;28;20088;-73
2022/01/23 11:23:14;;;;;;;15.55;5.38;;;;;;;;;;5073291;28;20020;-73
2022/01/23 11:26:06;;;;;;;13.18;5.45;;;;;;;;;;5071362;28;20139;-74
2022/01/23 11:28:47;;;;;;;13.43;5.72;;;;;;;;;;5070753;28;20198;-74
2022/01/23 11:31:18;;;;;;;11.80;5.05;;;;;;;;;;5067663;28;20333;-74
2022/01/23 11:33:46;;;;;;;12.02;4.97;;;;;;;;;;5073944;28;20027;-73
2022/01/23 11:36:13;;;;;;;12.40;4.78;;;;;;;;;;5066850;28;20043;-75
2022/01/23 11:38:40;;;;;;;13.30;4.95;;;;;;;;;;5068205;28;20142;-74
2022/01/23 11:54:43;;;;;;;10.90;4.75;;;;;;;;;;5068433;28;20351;-74
2022/01/23 11:57:37;;;;;;;9.68;4.38;;;;;;;;;;5068451;28;20036;-74
2022/01/23 12:00:30;;;;;;;11.27;4.82;;;;;;;;;;5064456;28;20037;-74
2022/01/23 12:03:05;;;;;;;13.50;5.45;;;;;;;;;;5064843;28;20043;-75
2022/01/23 12:05:30;;;;;;;12.65;4.88;;;;;;;;;;5071946;28;20086;-74
2022/01/23 12:08:27;;;;;;;13.88;5.10;;;;;;;;;;5066944;28;20025;-75
2022/01/23 12:11:34;;;;;;;12.23;5.47;;;;;;;;;;5065131;28;20025;-74
2022/01/23 12:16:58;;;;;;;14.70;6.05;;;;;;;;;;5065896;28;20020;-75
2022/01/23 12:19:31;;;;;;;17.90;6.97;;;;;;;;;;5071472;28;20051;-78
2022/01/23 12:22:18;;;;;;;13.85;6.20;;;;;;;;;;5069409;28;20033;-77
2022/01/23 12:24:53;;;;;;;14.10;5.32;;;;;;;;;;5071734;28;20083;-75
2022/01/23 12:27:21;;;;;;;;;;;;;;;;;;5067167;28;20052;-74
2022/01/23 12:29:46;;;;;;;11.70;5.05;;;;;;;;;;5066545;28;20093;-74
2022/01/23 12:32:29;;;;;;;13.25;5.32;;;;;;;;;;5063362;28;20036;-74
2022/01/23 12:34:56;;;;;;;17.23;6.35;;;;;;;;;;5066589;28;20475;-75
2022/01/23 12:37:22;;;;;;;16.48;6.15;;;;;;;;;;5066253;28;20037;-74
2022/01/23 12:40:24;;;;;;;16.20;6.32;;;;;;;;;;5066117;28;20025;-75
2022/01/23 12:43:08;;;;;;;16.75;7.10;;;;;;;;;;5053750;28;20041;-74
2022/01/23 12:45:55;;;;;;;14.60;6.18;;;;;;;;;;5070456;28;20036;-76
2022/01/23 12:48:26;;;;;;;14.15;6.10;;;;;;;;;;5050557;28;20017;-75
2022/01/23 12:51:13;;;;;;;16.17;7.13;;;;;;;;;;5050462;28;20070;-75
2022/01/23 12:53:42;;;;;;;17.85;7.03;;;;;;;;;;5064830;28;20074;-76
2022/01/23 12:56:10;;;;;;;17.63;7.63;;;;;;;;;;5064399;28;20028;-75
2022/01/23 12:58:37;;;;;;;15.52;6.82;;;;;;;;;;5070402;28;21177;-74
2022/01/23 13:01:16;;;;;;;16.70;6.40;;;;;;;;;;5065545;28;20032;-75
2022/01/23 13:03:43;;;;;;;18.23;6.90;;;;;;;;;;5067749;28;20051;-74
2022/01/23 13:06:11;;;;;;;14.30;6.88;;;;;;;;;;5065572;28;20345;-74
2022/01/23 13:08:47;;;;;;;18.52;6.90;;;;;;;;;;5065503;28;20382;-75
2022/01/23 13:13:59;;;;;;;19.27;7.80;;;;;;;;;;5064206;28;20041;-76
2022/01/23 13:16:59;;;;;;;19.55;8.20;;;;;;;;;;5066466;28;20086;-76
2022/01/23 13:19:46;;;;;;;16.00;7.07;;;;;;;;;;5066880;28;20231;-76
2022/01/23 13:30:31;;;;;;;20.17;7.60;;;;;;;;;;5037237;28;20049;-73
2022/01/23 13:33:04;;;;;;;18.50;8.02;;;;;;;;;;5064571;28;20084;-74
2022/01/23 13:35:36;;;;;;;17.08;7.45;;;;;;;;;;5052757;28;20032;-74
2022/01/23 13:38:09;;;;;;;18.30;7.55;;;;;;;;;;5048826;28;20029;-80
2022/01/23 13:40:39;;;;;;;15.52;7.03;;;;;;;;;;5067857;28;20019;-79
2022/01/23 13:59:56;;;;;;;20.60;8.18;;;;;;;;;;5063933;28;20027;-75
2022/01/23 14:02:23;;;;;;;17.70;7.40;;;;;;;;;;5063799;28;20045;-75
2022/01/23 14:04:53;;;;;;;14.20;6.28;;;;;;;;;;5064592;28;20060;-76
2022/01/23 14:07:21;;;;;;;19.10;7.00;;;;;;;;;;5065661;28;20043;-74
2022/01/23 14:09:47;;;;;;;19.60;8.13;;;;;;;;;;5063827;28;20025;-78
2022/01/23 14:12:16;;;;;;;18.35;7.78;;;;;;;;;;5062202;28;20044;-78
2022/01/23 14:15:00;;;;;;;21.35;8.50;;;;;;;;;;5065699;28;20080;-75
2022/01/23 14:17:28;;;;;;;20.60;9.10;;;;;;;;;;5066779;28;20021;-77
2022/01/23 14:20:14;;;;;;;18.05;8.40;;;;;;;;;;5066330;28;20240;-74
2022/01/23 14:22:42;;;;;;;19.65;8.45;;;;;;;;;;5068228;28;20407;-77
2022/01/23 14:25:27;;;;;;;18.45;7.90;;;;;;;;;;5068980;28;20024;-77
2022/01/23 14:28:08;;;;;;;20.60;8.13;;;;;;;;;;5071258;28;20024;-74
2022/01/23 14:30:40;;;;;;;18.85;8.50;;;;;;;;;;5050522;28;20291;-75
2022/01/23 14:33:33;;;;;;;18.33;7.95;;;;;;;;;;5066775;28;20021;-75
2022/01/23 14:36:16;;;;;;;20.42;7.35;;;;;;;;;;5063009;28;20130;-74
2022/01/23 14:39:03;;;;;;;21.63;7.97;;;;;;;;;;5066463;28;20043;-74
2022/01/23 14:41:33;;;;;;;18.65;7.97;;;;;;;;;;5081670;28;20028;-76
2022/01/23 14:44:00;;;;;;;15.35;7.22;;;;;;;;;;5083829;28;20025;-78
2022/01/23 14:46:26;;;;;;;20.45;7.68;;;;;;;;;;5079768;28;20024;-75
2022/01/23 14:48:58;;;;;;;16.67;7.90;;;;;;;;;;5083615;28;20112;-77
2022/01/23 14:51:26;;;;;;;18.90;8.38;;;;;;;;;;5080616;28;20027;-77
2022/01/23 14:53:53;;;;;;;16.85;7.93;;;;;;;;;;5075699;28;20316;-75
2022/01/23 14:56:20;;;;;;;18.77;7.90;;;;;;;;;;5078371;28;20146;-76
2022/01/23 14:58:47;;;;;;;19.30;8.68;;;;;;;;;;5083588;28;20040;-84
2022/01/23 15:01:15;;;;;;;17.55;7.60;;;;;;;;;;5084187;28;20029;-75
2022/01/23 15:03:48;;;;;;;19.52;8.10;;;;;;;;;;5084164;28;20100;-75
2022/01/23 15:06:15;;;;;;;18.35;8.23;;;;;;;;;;5073762;28;20070;-74
2022/01/23 15:08:45;;;;;;;18.85;8.15;;;;;;;;;;5083307;28;20100;-78
2022/01/23 15:11:10;;;;;;;18.85;8.52;;;;;;;;;;5077886;28;20030;-78
2022/01/23 15:13:36;;;;;;;18.77;8.27;;;;;;;;;;5089034;28;20059;-73
2022/01/23 15:16:02;;;;;;;18.60;9.10;;;;;;;;;;5082890;28;20095;-75
2022/01/23 15:18:27;;;;;;;19.63;8.63;;;;;;;;;;5083445;28;20467;-75
2022/01/23 15:20:53;;;;;;;20.70;8.93;;;;;;;;;;5076462;28;20059;-75
2022/01/23 15:23:18;;;;;;;18.88;8.88;;;;;;;;;;5085636;28;20021;-75
2022/01/23 15:25:45;;;;;;;18.05;8.32;;;;;;;;;;5083116;28;20027;-75
2022/01/23 15:28:11;;;;;;;17.40;7.70;;;;;;;;;;5076058;28;20044;-74
2022/01/23 15:30:37;;;;;;;18.13;8.05;;;;;;;;;;5072885;28;20029;-72
2022/01/23 15:33:04;;;;;;;16.75;7.40;;;;;;;;;;5082415;28;20025;-77
2022/01/23 15:35:30;;;;;;;20.42;7.80;;;;;;;;;;5080531;28;20036;-76
2022/01/23 15:37:55;;;;;;;16.20;7.93;;;;;;;;;;5070954;28;20036;-71
2022/01/23 15:40:23;;;;;;;17.48;7.63;;;;;;;;;;5083012;28;20414;-73
2022/01/23 15:42:51;;;;;;;18.80;7.50;;;;;;;;;;5072139;28;20066;-75
2022/01/23 15:45:18;;;;;;;17.13;7.03;;;;;;;;;;5071017;28;20032;-75
2022/01/23 15:47:43;;;;;;;17.70;7.20;;;;;;;;;;5065364;28;20047;-75
2022/01/23 15:50:11;;;;;;;21.38;7.50;;;;;;;;;;5067041;28;20036;-75
2022/01/23 15:52:37;;;;;;;16.77;7.57;;;;;;;;;;5073057;28;20094;-75
2022/01/23 15:55:04;;;;;;;19.67;7.28;;;;;;;;;;5068377;28;20032;-75
2022/01/23 15:57:30;;;;;;;15.27;7.57;;;;;;;;;;5066204;28;20037;-74
2022/01/23 15:59:55;;;;;;;17.92;8.02;;;;;;;;;;5068478;28;20024;-75
2022/01/23 16:02:20;;;;;;;19.73;7.78;;;;;;;;;;5064233;28;20048;-74
2022/01/23 16:04:46;;;;;;;18.98;7.93;;;;;;;;;;5064348;28;20029;-75
2022/01/23 16:07:16;;;;;;;19.52;7.72;;;;;;;;;;5064047;28;20075;-74
2022/01/23 16:09:42;;;;;;;16.45;7.90;;;;;;;;;;5066161;28;20017;-76
2022/01/23 16:12:08;;;;;;;23.02;8.85;;;;;;;;;;5067968;28;20318;-74
2022/01/23 16:14:34;;;;;;;16.45;8.23;;;;;;;;;;5065315;28;20029;-74
2022/01/23 16:16:59;;;;;;;17.27;7.57;;;;;;;;;;5065005;28;20077;-76
2022/01/23 16:19:24;;;;;;;19.90;8.10;;;;;;;;;;5067685;28;20117;-77
2022/01/23 16:21:54;;;;;;;20.38;8.27;;;;;;;;;;5066685;28;20381;-74
2022/01/23 16:24:21;;;;;;;19.63;8.57;;;;;;;;;;5071694;28;20023;-76
2022/01/23 16:26:48;;;;;;;17.88;8.30;;;;;;;;;;5067242;28;20025;-73
2022/01/23 16:29:13;;;;;;;20.38;8.63;;;;;;;;;;5066619;28;20087;-72
2022/01/23 16:31:39;;;;;;;24.17;8.32;;;;;;;;;;5073507;28;20032;-75
2022/01/23 16:34:04;;;;;;;18.40;8.25;;;;;;;;;;5066720;28;20055;-75
2022/01/23 16:36:32;;;;;;;19.02;8.18;;;;;;;;;;5068473;28;20025;-75
2022/01/23 16:38:57;;;;;;;18.77;7.10;;;;;;;;;;5065850;28;20021;-75
2022/01/23 16:41:22;;;;;;;17.45;7.55;;;;;;;;;;5065398;28;20050;-77
2022/01/23 16:43:49;;;;;;;16.70;7.63;;;;;;;;;;5069582;28;20025;-75
2022/01/23 16:46:16;;;;;;;17.23;8.10;;;;;;;;;;5067845;28;20278;-75
2022/01/23 16:48:41;;;;;;;20.38;8.00;;;;;;;;;;5071489;28;20023;-75
2022/01/23 16:51:07;;;;;;;17.08;8.43;;;;;;;;;;5052049;28;20105;-78
2022/01/23 16:53:33;;;;;;;18.58;8.02;;;;;;;;;;5068270;28;20021;-75
2022/01/23 16:55:58;;;;;;;17.52;7.90;;;;;;;;;;5063152;28;20074;-76
2022/01/23 16:58:29;;;;;;;16.38;7.88;;;;;;;;;;5065340;28;20048;-73
2022/01/23 17:00:55;;;;;;;19.80;8.68;;;;;;;;;;5065797;28;20094;-73
2022/01/23 17:03:20;;;;;;;22.02;9.00;;;;;;;;;;5063316;28;20458;-73
2022/01/23 17:05:46;;;;;;;17.88;8.77;;;;;;;;;;5047903;28;20047;-74
2022/01/23 17:08:16;;;;;;;21.60;9.65;;;;;;;;;;5065433;28;20017;-76
2022/01/23 17:10:42;;;;;;;17.67;8.73;;;;;;;;;;5067393;28;20028;-75
2022/01/23 17:13:09;;;;;;;19.10;8.02;;;;;;;;;;5066988;28;20021;-74
2022/01/23 17:15:34;;;;;;;19.40;9.15;;;;;;;;;;5063471;28;20045;-74
2022/01/23 17:18:00;;;;;;;21.98;9.50;;;;;;;;;;5080706;28;20382;-76
2022/01/23 17:20:25;;;;;;;17.92;8.80;;;;;;;;;;5079504;28;20020;-73
2022/01/23 17:22:51;;;;;;;20.00;8.75;;;;;;;;;;5068192;28;20021;-75
2022/01/23 17:25:16;;;;;;;17.75;8.93;;;;;;;;;;5065595;28;20201;-73
2022/01/23 17:27:42;;;;;;;17.83;8.50;;;;;;;;;;5064641;28;20080;-75
2022/01/23 17:30:08;;;;;;;18.92;9.20;;;;;;;;;;5067164;28;20032;-74
2022/01/23 17:32:33;;;;;;;18.15;9.10;;;;;;;;;;5049389;28;20024;-72
2022/01/23 17:34:58;;;;;;;18.40;8.50;;;;;;;;;;5068536;28;20343;-74
2022/01/23 17:37:24;;;;;;;20.88;9.30;;;;;;;;;;5065064;28;20343;-72
2022/01/23 17:39:49;;;;;;;18.48;8.98;;;;;;;;;;5064719;28;20094;-72
2022/01/23 17:42:14;;;;;;;18.77;9.25;;;;;;;;;;5066081;28;20032;-73
2022/01/23 17:44:45;;;;;;;19.65;9.60;;;;;;;;;;5066755;28;20044;-75
2022/01/23 17:47:21;;;;;;;19.98;9.77;;;;;;;;;;5068525;28;20027;-75
2022/01/23 17:49:54;;;;;;;22.50;9.75;;;;;;;;;;5065538;28;20016;-75
2022/01/23 17:52:21;;;;;;;18.05;8.75;;;;;;;;;;5064215;28;20056;-76
2022/01/23 17:54:46;;;;;;;21.25;9.48;;;;;;;;;;5066701;28;20031;-76
2022/01/23 17:57:11;;;;;;;19.63;9.02;;;;;;;;;;5066162;28;20208;-74
2022/01/23 17:59:37;;;;;;;19.45;9.90;;;;;;;;;;5067881;28;20075;-75
2022/01/23 18:02:03;;;;;;;21.10;8.95;;;;;;;;;;5071744;28;20043;-78
2022/01/23 18:04:28;;;;;;;18.30;9.43;;;;;;;;;;5074846;28;20031;-76
2022/01/23 18:07:03;;;;;;;16.08;8.15;;;;;;;;;;5068941;28;20404;-78